Time;durP1;ratioP1;P1;durP2;ratioP2;P2;SDS_P1;SDS_P2;PMS_P1;PMS_P2;Temp;Humidity;BMP_temperature;BMP_pressure;BME280_temperature;BME280_humidity;BME280_pressure;Samples;Min_cycle;Max_cycle;Signal;HPM_P1;HPM_P2
2023/08/15 00:01:25;;;;;;;1.73;1.63;;;19.40;99.90;;;;;;4986144;28;20058;-92
2023/08/15 00:03:51;;;;;;;1.70;1.60;;;19.30;99.90;;;;;;4988345;28;20052;-91
2023/08/15 00:06:20;;;;;;;1.60;1.50;;;19.30;99.90;;;;;;4986348;28;20057;-91
2023/08/15 00:08:48;;;;;;;1.55;1.45;;;19.00;99.90;;;;;;4985038;28;20757;-89
2023/08/15 00:11:16;;;;;;;1.42;1.38;;;19.00;99.90;;;;;;4987008;28;20129;-91
2023/08/15 00:13:42;;;;;;;1.27;1.27;;;19.30;99.90;;;;;;5015203;28;20038;-90
2023/08/15 00:16:08;;;;;;;1.20;1.20;;;19.10;99.90;;;;;;4988142;28;20083;-90
2023/08/15 00:18:33;;;;;;;1.20;1.20;;;19.10;99.90;;;;;;4989462;28;20205;-91
2023/08/15 00:21:00;;;;;;;1.10;1.10;;;19.00;99.90;;;;;;4971488;28;20050;-92
2023/08/15 00:23:26;;;;;;;1.20;1.20;;;18.90;99.90;;;;;;4981138;28;20058;-90
2023/08/15 00:25:52;;;;;;;1.20;1.20;;;18.90;99.90;;;;;;4981886;28;20484;-90
2023/08/15 00:28:17;;;;;;;1.20;1.20;;;18.80;99.90;;;;;;4979868;28;20077;-91
2023/08/15 00:30:43;;;;;;;1.10;1.10;;;18.80;99.90;;;;;;4986072;28;20053;-91
2023/08/15 00:33:09;;;;;;;1.10;1.10;;;18.70;99.90;;;;;;4979915;28;20125;-89
2023/08/15 00:35:34;;;;;;;1.02;1.02;;;18.60;99.90;;;;;;4986255;28;20045;-89
2023/08/15 00:38:00;;;;;;;1.10;1.10;;;18.70;99.90;;;;;;4984325;28;20045;-89
2023/08/15 00:40:26;;;;;;;1.10;1.10;;;18.90;99.90;;;;;;4983107;28;20046;-89
2023/08/15 00:42:52;;;;;;;1.10;1.10;;;18.90;99.90;;;;;;4986222;28;20128;-90
2023/08/15 00:45:17;;;;;;;1.02;1.02;;;18.70;99.90;;;;;;4986321;28;20053;-89
2023/08/15 00:47:46;;;;;;;1.00;1.00;;;18.70;99.90;;;;;;4983111;28;20554;-91
2023/08/15 00:50:12;;;;;;;1.17;1.17;;;18.60;99.90;;;;;;4982749;28;20057;-89
2023/08/15 00:52:39;;;;;;;1.13;1.13;;;18.80;99.90;;;;;;4986683;28;20543;-91
2023/08/15 00:55:07;;;;;;;1.15;1.15;;;18.70;99.90;;;;;;4998544;28;20041;-89
2023/08/15 00:57:33;;;;;;;1.10;1.10;;;18.60;99.90;;;;;;4998036;28;20057;-91
2023/08/15 00:59:59;;;;;;;1.20;1.20;;;18.80;99.90;;;;;;4984269;28;20057;-88
2023/08/15 01:02:24;;;;;;;1.23;1.23;;;18.60;99.90;;;;;;4987223;28;20050;-88
2023/08/15 01:04:50;;;;;;;1.10;1.10;;;18.50;99.90;;;;;;4981071;28;20047;-90
2023/08/15 01:07:17;;;;;;;1.20;1.20;;;18.60;99.90;;;;;;4984179;28;20057;-91
2023/08/15 01:09:44;;;;;;;1.20;1.20;;;18.90;99.90;;;;;;4985921;28;20050;-91
2023/08/15 01:12:36;;;;;;;1.50;1.40;;;19.00;99.90;;;;;;5000704;28;20147;-91
2023/08/15 01:15:07;;;;;;;1.65;1.55;;;19.10;99.90;;;;;;4990359;28;20041;-90
2023/08/15 01:17:56;;;;;;;1.65;1.55;;;19.10;99.90;;;;;;4985698;28;20049;-89
2023/08/15 01:20:28;;;;;;;1.70;1.60;;;19.00;99.90;;;;;;4987782;28;20046;-90
2023/08/15 01:22:59;;;;;;;1.70;1.60;;;19.10;99.90;;;;;;4996242;28;20046;-89
2023/08/15 01:25:26;;;;;;;1.67;1.58;;;19.00;99.90;;;;;;4984760;28;20038;-91
2023/08/15 01:27:51;;;;;;;1.98;1.88;;;19.10;99.90;;;;;;4986202;28;20041;-88
2023/08/15 01:30:21;;;;;;;2.20;2.10;;;19.10;99.90;;;;;;4987153;28;20194;-89
2023/08/15 01:33:08;;;;;;;1.77;1.67;;;19.20;99.90;;;;;;4997868;28;20132;-90
2023/08/15 01:35:41;;;;;;;1.52;1.42;;;19.10;99.90;;;;;;4987734;28;21425;-91
2023/08/15 01:38:46;;;;;;;2.00;1.90;;;19.20;99.90;;;;;;5009822;28;20049;-91
2023/08/15 01:41:18;;;;;;;1.80;1.70;;;19.30;99.90;;;;;;4980389;28;20105;-90
2023/08/15 01:43:45;;;;;;;1.70;1.60;;;19.40;99.90;;;;;;4987306;28;20499;-91
2023/08/15 01:46:11;;;;;;;2.05;1.95;;;19.40;99.90;;;;;;4991554;28;20038;-91
2023/08/15 01:48:41;;;;;;;2.00;1.90;;;19.30;99.90;;;;;;5003740;28;20268;-91
2023/08/15 01:51:08;;;;;;;1.80;1.70;;;19.00;99.90;;;;;;4990736;28;20049;-92
2023/08/15 01:53:35;;;;;;;2.17;2.08;;;19.30;99.90;;;;;;4987273;28;20069;-91
2023/08/15 01:56:01;;;;;;;2.20;2.10;;;19.00;99.90;;;;;;4991353;28;20050;-90
2023/08/15 01:58:27;;;;;;;2.20;2.10;;;19.20;99.90;;;;;;5021620;28;20123;-92
2023/08/15 02:00:53;;;;;;;2.10;2.00;;;19.20;99.90;;;;;;4991722;28;20525;-90
2023/08/15 02:03:18;;;;;;;2.30;2.20;;;19.00;99.90;;;;;;5005702;28;20128;-90
2023/08/15 02:05:44;;;;;;;2.45;2.35;;;19.10;99.90;;;;;;4987278;28;20046;-89
2023/08/15 02:08:10;;;;;;;2.40;2.30;;;18.80;99.90;;;;;;4993342;28;20076;-90
2023/08/15 02:10:35;;;;;;;2.45;2.35;;;18.90;99.90;;;;;;4985975;28;20089;-90
2023/08/15 02:13:01;;;;;;;2.42;2.33;;;18.90;99.90;;;;;;4983967;28;20041;-89
2023/08/15 02:15:27;;;;;;;2.42;2.33;;;18.80;99.90;;;;;;4988218;28;20078;-90
2023/08/15 02:17:53;;;;;;;2.67;2.55;;;19.10;99.90;;;;;;4985194;28;20107;-88
2023/08/15 02:20:18;;;;;;;2.72;2.58;;;19.10;99.90;;;;;;4997648;28;20096;-88
2023/08/15 02:22:44;;;;;;;2.83;2.65;;;18.70;99.90;;;;;;4985535;28;20042;-88
2023/08/15 02:25:10;;;;;;;3.00;2.80;;;19.10;99.90;;;;;;4983635;28;20049;-89
2023/08/15 02:27:35;;;;;;;3.22;3.03;;;18.70;99.90;;;;;;4998736;28;20123;-88
2023/08/15 02:30:01;;;;;;;3.03;2.83;;;18.60;99.90;;;;;;5002932;28;20133;-87
2023/08/15 02:32:27;;;;;;;3.40;3.20;;;18.40;99.90;;;;;;4987926;28;20050;-89
2023/08/15 02:34:53;;;;;;;3.50;3.30;;;18.70;99.90;;;;;;4983907;28;20035;-87
2023/08/15 02:37:19;;;;;;;2.42;2.33;;;18.20;99.90;;;;;;4986302;28;20049;-87
2023/08/15 02:39:46;;;;;;;3.05;2.85;;;18.50;99.90;;;;;;5001069;28;20407;-88
2023/08/15 02:42:12;;;;;;;2.97;2.78;;;18.50;99.90;;;;;;4983527;28;20404;-87
2023/08/15 02:44:38;;;;;;;2.80;2.63;;;18.80;99.90;;;;;;4980211;28;20141;-88
2023/08/15 02:47:03;;;;;;;2.42;2.33;;;18.90;99.90;;;;;;4986216;28;20133;-89
2023/08/15 02:49:29;;;;;;;2.40;2.30;;;18.20;99.90;;;;;;4991302;28;20041;-89
2023/08/15 02:51:55;;;;;;;2.25;2.15;;;18.80;99.90;;;;;;4986500;28;20488;-89
2023/08/15 02:54:20;;;;;;;1.63;1.52;;;18.30;99.90;;;;;;4983837;28;20107;-89
2023/08/15 02:56:46;;;;;;;1.52;1.42;;;18.60;99.90;;;;;;4998000;28;20046;-89
2023/08/15 02:59:12;;;;;;;2.00;1.90;;;18.90;99.90;;;;;;4979565;28;20065;-89
2023/08/15 03:01:37;;;;;;;1.52;1.45;;;18.80;99.90;;;;;;5000198;28;20140;-89
2023/08/15 03:04:05;;;;;;;2.10;2.00;;;18.20;99.90;;;;;;4983233;28;20133;-89
2023/08/15 03:06:31;;;;;;;2.35;2.25;;;18.30;99.90;;;;;;4998712;28;20101;-89
2023/08/15 03:08:57;;;;;;;2.17;2.08;;;18.70;99.90;;;;;;4998998;28;20590;-89
2023/08/15 03:11:23;;;;;;;2.45;2.35;;;18.10;99.90;;;;;;4999371;28;20052;-89
2023/08/15 03:13:48;;;;;;;2.20;2.10;;;18.40;99.90;;;;;;4987083;28;20077;-88
2023/08/15 03:16:14;;;;;;;2.00;1.90;;;18.30;99.90;;;;;;4981142;28;20054;-88
2023/08/15 03:18:40;;;;;;;2.10;2.00;;;18.10;99.90;;;;;;4982003;28;20076;-88
2023/08/15 03:21:08;;;;;;;2.03;1.92;;;18.60;99.90;;;;;;4976859;28;20089;-89
2023/08/15 03:23:34;;;;;;;2.10;2.00;;;18.30;99.90;;;;;;4998523;28;20054;-87
2023/08/15 03:26:02;;;;;;;2.05;1.95;;;18.80;99.90;;;;;;4985602;28;20069;-89
2023/08/15 03:28:28;;;;;;;2.08;1.98;;;18.70;99.90;;;;;;4984559;28;20041;-89
2023/08/15 03:30:54;;;;;;;2.15;2.05;;;19.10;99.90;;;;;;5003233;28;20178;-89
2023/08/15 03:33:20;;;;;;;2.10;2.00;;;18.70;99.90;;;;;;4993691;28;20065;-92
2023/08/15 03:35:50;;;;;;;2.00;1.90;;;19.20;99.90;;;;;;4987108;28;20046;-91
2023/08/15 03:38:20;;;;;;;2.00;1.90;;;19.00;99.90;;;;;;4998857;28;20408;-89
2023/08/15 03:40:49;;;;;;;2.08;1.98;;;19.30;99.90;;;;;;4995852;28;20045;-89
2023/08/15 03:43:15;;;;;;;2.00;1.90;;;18.80;99.90;;;;;;4983078;28;20510;-89
2023/08/15 03:45:41;;;;;;;2.08;1.98;;;19.00;99.90;;;;;;4996443;28;20038;-90
2023/08/15 03:48:09;;;;;;;2.10;2.00;;;19.30;99.90;;;;;;4984486;28;20566;-88
2023/08/15 03:50:37;;;;;;;2.00;1.90;;;19.10;99.90;;;;;;4996249;28;20042;-88
2023/08/15 03:53:04;;;;;;;2.05;1.95;;;18.80;99.90;;;;;;4982640;28;20050;-88
2023/08/15 03:55:30;;;;;;;2.20;2.10;;;18.80;99.90;;;;;;4989106;28;20117;-86
2023/08/15 03:57:56;;;;;;;2.20;2.10;;;18.80;99.90;;;;;;4982904;28;20053;-88
2023/08/15 04:00:22;;;;;;;1.90;1.80;;;18.90;99.90;;;;;;4995208;28;20096;-92
2023/08/15 04:02:48;;;;;;;2.00;1.90;;;19.00;99.90;;;;;;4984797;28;20581;-89
2023/08/15 04:05:14;;;;;;;1.92;1.83;;;19.10;99.90;;;;;;4996499;28;20042;-90
2023/08/15 04:07:40;;;;;;;1.77;1.67;;;19.10;99.90;;;;;;4987036;28;20060;-89
2023/08/15 04:10:06;;;;;;;1.80;1.70;;;19.20;99.90;;;;;;4989069;28;20546;-88
2023/08/15 04:12:33;;;;;;;1.73;1.63;;;19.20;99.90;;;;;;4998484;28;20056;-85
2023/08/15 04:15:02;;;;;;;1.80;1.70;;;18.90;99.90;;;;;;4999620;28;20047;-85
2023/08/15 04:17:28;;;;;;;1.90;1.80;;;19.50;99.90;;;;;;4989651;28;20531;-85
2023/08/15 04:19:53;;;;;;;2.00;1.90;;;19.20;99.90;;;;;;4991222;28;20046;-86
2023/08/15 04:22:19;;;;;;;2.17;2.08;;;19.20;99.90;;;;;;4995061;28;20053;-86
2023/08/15 04:24:45;;;;;;;2.10;2.00;;;19.90;99.90;;;;;;4993390;28;20053;-86
2023/08/15 04:27:11;;;;;;;2.33;2.22;;;19.20;99.90;;;;;;4998401;28;20079;-85
2023/08/15 04:29:37;;;;;;;2.25;2.15;;;19.80;99.90;;;;;;4994743;28;20052;-86
2023/08/15 04:32:02;;;;;;;2.28;2.17;;;19.80;99.90;;;;;;4994738;28;20054;-86
2023/08/15 04:34:29;;;;;;;2.38;2.28;;;19.50;99.90;;;;;;4994467;28;20077;-86
2023/08/15 04:36:54;;;;;;;2.45;2.35;;;19.60;99.90;;;;;;4977708;28;20129;-87
2023/08/15 04:39:23;;;;;;;2.40;2.30;;;20.00;99.90;;;;;;4995952;28;20128;-86
2023/08/15 04:41:49;;;;;;;2.28;2.17;;;19.70;99.90;;;;;;4991351;28;20117;-85
2023/08/15 04:44:15;;;;;;;2.30;2.20;;;20.00;99.90;;;;;;4994458;28;20067;-86
2023/08/15 04:46:40;;;;;;;2.15;2.05;;;19.90;99.90;;;;;;5002988;28;20046;-86
2023/08/15 04:49:06;;;;;;;2.17;2.08;;;19.70;99.90;;;;;;4980003;28;20045;-86
2023/08/15 04:51:32;;;;;;;2.10;2.00;;;19.80;99.90;;;;;;4977831;28;20089;-86
2023/08/15 04:53:58;;;;;;;1.95;1.85;;;20.20;99.90;;;;;;4997990;28;20191;-86
2023/08/15 04:56:23;;;;;;;1.90;1.80;;;20.20;99.90;;;;;;4992908;28;20044;-86
2023/08/15 04:58:49;;;;;;;1.92;1.83;;;20.10;99.90;;;;;;4979870;28;20448;-85
2023/08/15 05:01:15;;;;;;;1.73;1.63;;;19.70;99.90;;;;;;4980765;28;20042;-85
2023/08/15 05:03:41;;;;;;;1.80;1.70;;;20.10;99.90;;;;;;4995084;28;20042;-85
2023/08/15 05:06:07;;;;;;;1.70;1.60;;;19.80;99.90;;;;;;4993539;28;20073;-85
2023/08/15 05:08:32;;;;;;;1.70;1.60;;;19.70;99.90;;;;;;4999827;28;20042;-85
2023/08/15 05:11:01;;;;;;;1.70;1.60;;;19.70;99.90;;;;;;4985228;28;20085;-86
2023/08/15 05:13:27;;;;;;;1.80;1.70;;;19.70;99.90;;;;;;5020964;28;20136;-86
2023/08/15 05:15:53;;;;;;;1.73;1.63;;;19.90;99.90;;;;;;4997714;28;20486;-87
2023/08/15 05:18:20;;;;;;;1.90;1.80;;;20.10;99.90;;;;;;5002359;28;20049;-87
2023/08/15 05:20:47;;;;;;;1.73;1.63;;;19.90;99.90;;;;;;4996945;28;20550;-87
2023/08/15 05:23:14;;;;;;;1.85;1.75;;;19.80;99.90;;;;;;4993813;28;20173;-87
2023/08/15 05:25:41;;;;;;;1.90;1.80;;;20.00;99.90;;;;;;4983645;28;20070;-88
2023/08/15 05:28:57;;;;;;;1.85;1.75;;;20.10;99.90;;;;;;4990213;28;20038;-96
2023/08/15 05:31:23;;;;;;;2.03;1.92;;;19.80;99.90;;;;;;4967034;28;20082;-88
2023/08/15 05:33:48;;;;;;;1.95;1.85;;;19.80;99.90;;;;;;5000297;28;20088;-86
2023/08/15 05:36:14;;;;;;;2.05;1.95;;;20.20;99.90;;;;;;4999696;28;20056;-87
2023/08/15 05:38:40;;;;;;;2.05;1.95;;;20.20;99.90;;;;;;4986323;28;20053;-86
2023/08/15 05:41:05;;;;;;;1.98;1.88;;;20.20;99.90;;;;;;4984863;28;20046;-87
2023/08/15 05:43:31;;;;;;;1.98;1.88;;;19.90;99.90;;;;;;4995212;28;20042;-89
2023/08/15 05:45:57;;;;;;;2.03;1.92;;;19.90;99.90;;;;;;5001786;28;20038;-89
2023/08/15 05:48:22;;;;;;;1.95;1.85;;;20.00;99.90;;;;;;4989048;28;20149;-87
2023/08/15 05:50:48;;;;;;;1.85;1.75;;;20.00;99.90;;;;;;4999292;28;20041;-87
2023/08/15 05:53:14;;;;;;;2.13;2.03;;;20.00;99.90;;;;;;4994095;28;20046;-87
2023/08/15 05:55:42;;;;;;;2.03;1.92;;;20.00;99.90;;;;;;4995852;28;20046;-89
2023/08/15 05:58:08;;;;;;;2.13;2.03;;;19.60;99.90;;;;;;4987306;28;20384;-86
2023/08/15 06:00:34;;;;;;;2.20;2.10;;;19.70;99.90;;;;;;4980536;28;20106;-88
2023/08/15 06:03:00;;;;;;;2.03;1.92;;;19.60;99.90;;;;;;4978433;28;20133;-88
2023/08/15 06:05:30;;;;;;;2.20;2.10;;;19.80;99.90;;;;;;4994786;28;20140;-86
2023/08/15 06:07:55;;;;;;;2.05;1.95;;;19.70;99.90;;;;;;5007784;28;20480;-88
2023/08/15 06:10:33;;;;;;;2.00;1.90;;;19.60;99.90;;;;;;4996258;28;20053;-93
2023/08/15 06:12:59;;;;;;;2.00;1.90;;;19.70;99.90;;;;;;4982576;28;20081;-88
2023/08/15 06:15:25;;;;;;;1.90;1.80;;;19.80;99.90;;;;;;4978279;28;20065;-89
2023/08/15 06:17:50;;;;;;;1.80;1.70;;;19.60;99.90;;;;;;4981021;28;20105;-89
2023/08/15 06:20:16;;;;;;;1.80;1.70;;;19.60;99.90;;;;;;4996460;28;20056;-86
2023/08/15 06:22:45;;;;;;;2.00;1.90;;;19.40;99.90;;;;;;5005023;28;20050;-89
2023/08/15 06:25:11;;;;;;;2.17;2.08;;;19.40;99.90;;;;;;5002119;28;20096;-88
2023/08/15 06:27:37;;;;;;;1.75;1.65;;;19.40;99.90;;;;;;4991946;28;20050;-90
2023/08/15 06:30:03;;;;;;;1.50;1.40;;;19.80;99.90;;;;;;4986299;28;20080;-89
2023/08/15 06:32:32;;;;;;;0.65;0.65;;;20.00;99.90;;;;;;4986035;28;20046;-87
2023/08/15 06:34:59;;;;;;;0.60;0.60;;;20.10;99.90;;;;;;4997885;28;20487;-88
2023/08/15 06:37:25;;;;;;;0.57;0.57;;;20.30;99.90;;;;;;5002971;28;20056;-89
2023/08/15 06:39:51;;;;;;;0.50;0.50;;;20.10;99.90;;;;;;4988582;28;20129;-89
2023/08/15 06:42:19;;;;;;;0.50;0.50;;;20.00;99.90;;;;;;4999717;28;20077;-92
2023/08/15 06:48:14;;;;;;;0.50;0.50;;;20.60;99.90;;;;;;4963718;28;20066;-89
2023/08/15 06:50:40;;;;;;;0.60;0.60;;;20.80;99.90;;;;;;5000475;28;20046;-89
2023/08/15 06:53:06;;;;;;;0.65;0.65;;;20.80;99.90;;;;;;4984674;28;20092;-88
2023/08/15 06:55:31;;;;;;;0.63;0.63;;;20.90;99.90;;;;;;4986941;28;20515;-89
2023/08/15 06:57:58;;;;;;;0.60;0.60;;;20.90;99.90;;;;;;5002275;28;20046;-90
2023/08/15 07:00:23;;;;;;;0.60;0.60;;;21.00;99.90;;;;;;4988825;28;20103;-86
2023/08/15 07:02:50;;;;;;;0.70;0.70;;;21.30;99.90;;;;;;4978569;28;20074;-90
2023/08/15 07:05:16;;;;;;;0.68;0.68;;;21.50;99.90;;;;;;4988426;28;20050;-90
2023/08/15 07:07:41;;;;;;;0.60;0.60;;;21.50;99.90;;;;;;4989972;28;20042;-91
2023/08/15 07:10:10;;;;;;;0.60;0.60;;;21.40;99.90;;;;;;4986216;28;20050;-90
2023/08/15 07:12:36;;;;;;;0.55;0.55;;;21.60;99.90;;;;;;4985868;28;20160;-87
2023/08/15 07:15:01;;;;;;;0.60;0.60;;;22.00;99.90;;;;;;5002013;28;20120;-85
2023/08/15 07:17:27;;;;;;;0.50;0.50;;;22.20;99.90;;;;;;4999147;28;20112;-86
2023/08/15 07:19:53;;;;;;;0.50;0.50;;;22.30;99.90;;;;;;4988904;28;20129;-87
2023/08/15 07:22:18;;;;;;;0.45;0.45;;;22.20;99.90;;;;;;4996549;28;20101;-87
2023/08/15 07:24:45;;;;;;;0.40;0.40;;;22.40;99.90;;;;;;5002673;28;20076;-88
2023/08/15 07:27:10;;;;;;;0.40;0.40;;;22.40;99.90;;;;;;5003192;28;20049;-88
2023/08/15 07:29:36;;;;;;;0.45;0.45;;;22.70;99.90;;;;;;4987297;28;20046;-89
2023/08/15 07:32:02;;;;;;;0.50;0.50;;;22.80;99.90;;;;;;5001539;28;20077;-91
2023/08/15 07:34:31;;;;;;;0.40;0.40;;;22.80;99.90;;;;;;4981839;28;20052;-92
2023/08/15 07:36:56;;;;;;;0.40;0.40;;;23.00;99.90;;;;;;4980263;28;20137;-90
2023/08/15 07:39:31;;;;;;;0.40;0.40;;;23.10;99.90;;;;;;4979920;28;20137;-92
2023/08/15 07:42:09;;;;;;;0.40;0.40;;;23.00;99.90;;;;;;5000534;28;20069;-91
2023/08/15 07:44:34;;;;;;;0.40;0.40;;;22.90;99.90;;;;;;4986181;28;20129;-90
2023/08/15 07:47:00;;;;;;;0.40;0.40;;;23.20;99.90;;;;;;4983899;28;20082;-90
2023/08/15 07:49:26;;;;;;;0.40;0.40;;;23.40;99.90;;;;;;4993004;28;20038;-91
2023/08/15 07:51:52;;;;;;;0.47;0.47;;;23.30;99.90;;;;;;4982410;28;20094;-90
2023/08/15 07:54:19;;;;;;;0.47;0.47;;;23.40;99.90;;;;;;4976969;28;20038;-88
2023/08/15 07:57:14;;;;;;;0.38;0.38;;;23.40;99.90;;;;;;4985900;28;20056;-89
2023/08/15 07:59:40;;;;;;;0.60;0.60;;;23.60;99.90;;;;;;4976897;28;20054;-87
2023/08/15 08:02:08;;;;;;;0.50;0.50;;;23.60;99.90;;;;;;4993443;28;20046;-93
2023/08/15 08:04:34;;;;;;;0.40;0.40;;;23.80;99.90;;;;;;4990274;28;20785;-89
2023/08/15 08:07:00;;;;;;;0.70;0.70;;;24.00;99.90;;;;;;4982110;28;20046;-88
2023/08/15 08:09:26;;;;;;;0.30;0.30;;;23.80;99.90;;;;;;4999753;28;20133;-88
2023/08/15 08:11:52;;;;;;;0.52;0.38;;;24.00;99.90;;;;;;4999672;28;20046;-89
2023/08/15 08:14:39;;;;;;;0.47;0.47;;;24.10;99.90;;;;;;4987763;28;20041;-95
2023/08/15 08:17:05;;;;;;;0.35;0.35;;;24.20;99.90;;;;;;4988821;28;20408;-89
2023/08/15 08:20:08;;;;;;;0.30;0.30;;;24.30;99.90;;;;;;5001795;28;20045;-95
2023/08/15 08:22:34;;;;;;;0.60;0.60;;;24.20;99.90;;;;;;4967864;28;20051;-88
2023/08/15 08:25:16;;;;;;;0.30;0.30;;;24.10;99.90;;;;;;4972228;28;20082;-90
2023/08/15 08:28:21;;;;;;;;;;;;;;;;;;;;;
2023/08/15 08:31:07;;;;;;;0.40;0.40;;;23.80;99.90;;;;;;4992637;28;20121;-88
2023/08/15 08:33:42;;;;;;;0.30;0.30;;;23.60;99.90;;;;;;4990211;28;20046;-95
2023/08/15 08:36:24;;;;;;;0.40;0.40;;;23.80;99.90;;;;;;4994160;28;20581;-91
2023/08/15 08:38:49;;;;;;;0.60;0.60;;;23.80;99.90;;;;;;4997384;28;20092;-92
2023/08/15 08:41:15;;;;;;;0.30;0.30;;;23.90;99.90;;;;;;4986175;28;20043;-90
2023/08/15 08:43:42;;;;;;;0.38;0.38;;;23.60;99.90;;;;;;4984854;28;20069;-90
2023/08/15 08:46:13;;;;;;;0.40;0.40;;;23.50;99.90;;;;;;4986358;28;20129;-92
2023/08/15 08:48:57;;;;;;;0.60;0.60;;;23.30;99.90;;;;;;4989149;28;20038;-93
2023/08/15 08:51:56;;;;;;;0.30;0.30;;;23.50;99.90;;;;;;4986766;28;20121;-93
2023/08/15 08:54:29;;;;;;;0.60;0.60;;;23.20;99.90;;;;;;4973581;28;20127;-94
2023/08/15 08:56:58;;;;;;;0.35;0.35;;;23.10;99.90;;;;;;4988705;28;20042;-92
2023/08/15 08:59:43;;;;;;;0.60;0.60;;;22.80;99.90;;;;;;5006291;28;20061;-88
2023/08/15 09:02:12;;;;;;;0.35;0.35;;;22.60;99.90;;;;;;4978715;28;20050;-91
2023/08/15 09:04:38;;;;;;;0.60;0.60;;;22.80;99.90;;;;;;4996364;28;20038;-91
2023/08/15 09:07:04;;;;;;;0.50;0.50;;;23.00;99.90;;;;;;4985875;28;20053;-92
2023/08/15 09:09:29;;;;;;;0.40;0.40;;;23.00;99.90;;;;;;4984747;28;20046;-88
2023/08/15 09:11:56;;;;;;;0.60;0.60;;;23.10;99.90;;;;;;4994624;28;20073;-87
2023/08/15 09:14:32;;;;;;;0.50;0.50;;;23.10;99.90;;;;;;5000228;28;20046;-93
2023/08/15 09:16:58;;;;;;;0.50;0.50;;;23.00;99.90;;;;;;4980769;28;20053;-89
2023/08/15 09:19:24;;;;;;;0.50;0.50;;;23.10;99.90;;;;;;4981193;28;20041;-91
2023/08/15 09:22:03;;;;;;;0.50;0.50;;;23.10;99.90;;;;;;4984918;28;20034;-90
2023/08/15 09:24:32;;;;;;;0.40;0.40;;;23.20;99.90;;;;;;4982478;28;20046;-88
2023/08/15 09:27:04;;;;;;;0.50;0.50;;;23.10;99.90;;;;;;4994834;28;20053;-87
2023/08/15 09:29:33;;;;;;;0.53;0.53;;;23.30;99.90;;;;;;5014348;28;20046;-88
2023/08/15 09:31:59;;;;;;;0.40;0.40;;;23.20;99.90;;;;;;4993259;28;20412;-89
2023/08/15 09:34:25;;;;;;;0.50;0.50;;;23.20;99.90;;;;;;4977338;28;20049;-87
2023/08/15 09:36:54;;;;;;;0.40;0.40;;;23.10;99.90;;;;;;4992761;28;20049;-88
2023/08/15 09:39:19;;;;;;;0.50;0.50;;;22.80;99.90;;;;;;4980916;28;20038;-88
2023/08/15 09:41:48;;;;;;;0.38;0.38;;;22.80;99.90;;;;;;4980612;28;20053;-87
2023/08/15 09:44:30;;;;;;;0.50;0.50;;;22.80;99.90;;;;;;4982725;28;20053;-90
2023/08/15 09:46:56;;;;;;;0.55;0.55;;;23.30;99.90;;;;;;4981905;28;20498;-87
2023/08/15 09:49:22;;;;;;;0.50;0.50;;;23.60;99.90;;;;;;4982460;28;20481;-91
2023/08/15 09:51:51;;;;;;;0.30;0.30;;;23.70;99.90;;;;;;4996506;28;20057;-92
2023/08/15 09:54:20;;;;;;;0.38;0.38;;;23.90;99.90;;;;;;5000851;28;20050;-90
2023/08/15 09:56:46;;;;;;;0.32;0.32;;;24.20;99.90;;;;;;4983178;28;20057;-88
2023/08/15 09:59:14;;;;;;;0.50;0.50;;;24.10;99.90;;;;;;4983729;28;20045;-91
2023/08/15 10:01:45;;;;;;;0.30;0.30;;;24.00;99.90;;;;;;4991774;28;20052;-90
2023/08/15 10:04:13;;;;;;;0.30;0.30;;;24.30;99.90;;;;;;4988337;28;20194;-88
2023/08/15 10:06:44;;;;;;;0.60;0.60;;;24.00;99.90;;;;;;4998938;28;20119;-88
2023/08/15 10:09:17;;;;;;;0.40;0.40;;;23.90;99.90;;;;;;4996989;28;20412;-92
2023/08/15 10:11:52;;;;;;;0.50;0.50;;;24.10;99.90;;;;;;5007396;28;20050;-91
2023/08/15 10:14:22;;;;;;;0.30;0.30;;;24.00;99.90;;;;;;4992970;28;20344;-91
2023/08/15 10:16:51;;;;;;;0.30;0.30;;;23.90;99.90;;;;;;4983867;28;20054;-91
2023/08/15 10:19:28;;;;;;;0.40;0.40;;;24.40;99.90;;;;;;4982115;28;20108;-89
2023/08/15 10:22:02;;;;;;;0.30;0.30;;;24.30;99.90;;;;;;4994321;28;20041;-93
2023/08/15 10:24:37;;;;;;;0.30;0.30;;;24.80;99.90;;;;;;4983393;28;20046;-94
2023/08/15 10:27:06;;;;;;;0.30;0.30;;;24.90;99.90;;;;;;5000575;28;20060;-88
2023/08/15 10:29:32;;;;;;;0.40;0.40;;;24.90;99.90;;;;;;4992030;28;20057;-89
2023/08/15 10:32:08;;;;;;;0.30;0.30;;;24.70;99.90;;;;;;4989618;28;20514;-91
2023/08/15 10:34:34;;;;;;;0.30;0.30;;;24.80;99.90;;;;;;4999995;28;20045;-88
2023/08/15 10:37:51;;;;;;;0.30;0.30;;;25.10;99.90;;;;;;5003147;28;20049;-95
2023/08/15 10:40:17;;;;;;;0.35;0.35;;;24.80;99.90;;;;;;4984898;28;20066;-86
2023/08/15 10:43:08;;;;;;;0.30;0.30;;;24.80;99.90;;;;;;4984701;28;20072;-90
2023/08/15 10:45:45;;;;;;;0.30;0.30;;;24.50;99.90;;;;;;4996895;28;20047;-87
2023/08/15 10:48:43;;;;;;;0.30;0.30;;;24.20;99.90;;;;;;5004656;28;20624;-93
2023/08/15 10:51:27;;;;;;;0.40;0.40;;;24.20;99.90;;;;;;5002667;28;20894;-88
2023/08/15 10:54:01;;;;;;;0.77;0.77;;;24.20;99.90;;;;;;4987742;28;20038;-91
2023/08/15 10:56:32;;;;;;;;;;;24.10;99.90;;;;;;4986142;28;20103;-92
2023/08/15 10:58:59;;;;;;;0.70;0.70;;;24.00;99.90;;;;;;4988539;28;19936;-88
2023/08/15 11:01:26;;;;;;;0.32;0.32;;;24.00;99.90;;;;;;4986454;28;20320;-90
2023/08/15 11:03:56;;;;;;;0.40;0.40;;;24.10;99.90;;;;;;5004465;28;20054;-90
2023/08/15 11:06:29;;;;;;;0.43;0.43;;;24.10;99.90;;;;;;5000870;28;20081;-91
2023/08/15 11:08:58;;;;;;;0.40;0.40;;;24.00;99.90;;;;;;5003199;28;20085;-92
2023/08/15 11:11:25;;;;;;;0.30;0.30;;;24.40;99.90;;;;;;4998991;28;20050;-86
2023/08/15 11:13:52;;;;;;;0.32;0.32;;;25.10;99.90;;;;;;4995802;28;20076;-89
2023/08/15 11:16:25;;;;;;;0.30;0.30;;;25.10;99.90;;;;;;4989245;28;20046;-92
2023/08/15 11:22:03;;;;;;;0.30;0.30;;;25.80;99.90;;;;;;5002662;28;20180;-92
2023/08/15 11:24:35;;;;;;;0.40;0.40;;;25.60;99.90;;;;;;4986390;28;20073;-88
2023/08/15 11:27:04;;;;;;;0.30;0.30;;;25.60;99.90;;;;;;4987503;28;20492;-92
2023/08/15 11:29:33;;;;;;;0.30;0.30;;;25.50;99.90;;;;;;5003627;28;20042;-93
2023/08/15 11:32:03;;;;;;;0.30;0.30;;;25.20;99.90;;;;;;4980838;28;20081;-91
2023/08/15 11:34:29;;;;;;;0.30;0.30;;;25.00;99.90;;;;;;5004977;28;20078;-91
2023/08/15 11:36:55;;;;;;;0.40;0.40;;;24.90;99.90;;;;;;4987932;28;20521;-90
2023/08/15 11:39:28;;;;;;;0.30;0.30;;;25.00;99.90;;;;;;5003215;28;20291;-91
2023/08/15 11:42:09;;;;;;;0.30;0.30;;;25.10;99.90;;;;;;4997820;28;20058;-90
2023/08/15 11:44:35;;;;;;;0.30;0.30;;;25.00;99.90;;;;;;4984921;28;20506;-88
2023/08/15 11:47:09;;;;;;;0.40;0.40;;;24.70;99.90;;;;;;4985394;28;20053;-92
2023/08/15 11:49:34;;;;;;;0.30;0.30;;;24.80;99.90;;;;;;4989163;28;20539;-89
2023/08/15 11:52:42;;;;;;;0.30;0.30;;;25.00;99.90;;;;;;5001775;28;20125;-94
2023/08/15 11:55:10;;;;;;;0.30;0.30;;;24.80;99.90;;;;;;4970488;28;20051;-92
2023/08/15 11:57:35;;;;;;;0.40;0.40;;;24.90;99.90;;;;;;4983379;28;20050;-91
2023/08/15 12:00:09;;;;;;;0.45;0.45;;;24.80;99.90;;;;;;4978989;28;20057;-91
2023/08/15 12:03:24;;;;;;;0.30;0.30;;;24.90;99.90;;;;;;4997611;28;20127;-92
2023/08/15 12:06:08;;;;;;;;;;;;;;;;;;;;;
2023/08/15 12:08:35;;;;;;;0.30;0.30;;;25.10;99.90;;;;;;5003942;28;20046;-91
2023/08/15 12:11:04;;;;;;;0.32;0.32;;;25.50;99.90;;;;;;4983942;28;20052;-89
2023/08/15 12:13:49;;;;;;;0.30;0.30;;;25.70;99.90;;;;;;5000848;28;20048;-93
2023/08/15 12:16:15;;;;;;;0.30;0.30;;;25.90;99.90;;;;;;4991056;28;20064;-93
2023/08/15 12:18:44;;;;;;;0.30;0.30;;;26.10;99.90;;;;;;4994008;28;20053;-94
2023/08/15 12:21:11;;;;;;;0.30;0.30;;;26.10;99.90;;;;;;4998145;28;20073;-88
2023/08/15 12:23:37;;;;;;;0.30;0.30;;;26.20;99.90;;;;;;4999173;28;20081;-91
2023/08/15 12:26:03;;;;;;;0.30;0.30;;;26.20;99.90;;;;;;4975805;28;20046;-87
2023/08/15 12:28:28;;;;;;;0.30;0.30;;;26.10;99.90;;;;;;4976828;28;20104;-88
2023/08/15 12:30:54;;;;;;;0.30;0.30;;;26.60;99.90;;;;;;4989890;28;20084;-89
2023/08/15 12:33:20;;;;;;;0.30;0.30;;;26.40;99.90;;;;;;5003326;28;20085;-90
2023/08/15 12:36:01;;;;;;;0.30;0.30;;;26.10;99.90;;;;;;4981738;28;20046;-95
2023/08/15 12:38:26;;;;;;;0.30;0.30;;;26.20;99.90;;;;;;4986612;28;20070;-91
2023/08/15 12:40:57;;;;;;;0.30;0.30;;;26.50;99.90;;;;;;4977644;28;20078;-93
2023/08/15 12:43:23;;;;;;;0.30;0.30;;;26.40;99.90;;;;;;4990380;28;20049;-91
2023/08/15 12:45:52;;;;;;;0.35;0.30;;;26.30;99.90;;;;;;4984162;28;20050;-91
2023/08/15 12:48:17;;;;;;;0.30;0.30;;;26.10;99.90;;;;;;4996319;28;20096;-91
2023/08/15 12:54:16;;;;;;;0.30;0.30;;;26.10;99.90;;;;;;4986975;28;20050;-89
2023/08/15 12:56:41;;;;;;;0.30;0.30;;;26.20;99.90;;;;;;4983853;28;20121;-89
2023/08/15 12:59:07;;;;;;;0.30;0.30;;;26.30;99.90;;;;;;4997844;28;20125;-89
2023/08/15 13:01:40;;;;;;;0.30;0.30;;;26.20;99.90;;;;;;4980401;28;20151;-91
2023/08/15 13:04:12;;;;;;;0.30;0.30;;;25.90;99.90;;;;;;4981235;28;20045;-94
2023/08/15 13:06:40;;;;;;;;;;;25.50;99.90;;;;;;4981502;28;20170;-88
2023/08/15 13:09:29;;;;;;;0.30;0.30;;;25.30;99.90;;;;;;5007870;28;20019;-91
2023/08/15 13:12:09;;;;;;;0.30;0.30;;;25.20;99.90;;;;;;4996941;28;20047;-94